Pago Pago, AS (96799)

7:34 PM SST on August 28, 2015 (GMT -1100)
Kona International At Keahole | | Change Station
CLOSE
Current Station
Airport
Location: Keahole Point,
Elevation: 43 ft
Nearby Weather Stations

Elev 43 ft 19.74 °N, 156.05 °W | Updated 41 minutes ago

Mostly Cloudy
Mostly Cloudy
83 °F
Feels Like 89 °F
N
4
Wind Variable Wind from South

Today
High -- | Low -- °F
--% Chance of Precip.
Yesterday
High -- | Low -- °F
Precip. -- in
6:30 AM 6:17 PM
Full, 100% visible
Pressure 29.86 in
Visibility 10.0 miles
Clouds Mostly Cloudy 4300 ft
Heat Index 89 °F
Dew Point 74 °F
Humidity 74%
Rainfall 0.00 in
Snow Depth Not available.
UV 0 out of 12
Pollen Not available.
Air Quality Not available.
Flu Activity Not available.
METAR PHKO 290553Z 18003KT 10SM BKN043 28/23 A2986 RMK AO2 SLP111 T02830233 10311 20283 53011
Pressure 29.86 in
Visibility 10.0 miles
Clouds Mostly Cloudy 4300 ft
Heat Index 89 °F
Dew Point 74 °F
Humidity 74%
Rainfall 0.00 in
Snow Depth Not available.
UV 0 out of 12
Pollen Not available.
Air Quality Not available.
Flu Activity Not available.
METAR PHKO 290553Z 18003KT 10SM BKN043 28/23 A2986 RMK AO2 SLP111 T02830233 10311 20283 53011

10-Day Weather Forecast

×

Almanac

Astronomy

Aug. 28, 2015 Rise Set
Actual Time
Civil Twilight
Nautical Twilight
Astronomical Twilight
Moon
Length of Visible Light
Length of Day
Tomorrow will be .
, % of the Moon is Illuminated

Today's Extremes

State Highs State Lows

Community

WunderPhotos

Upload Photos

1,850,622 photos uploaded!

WunderBlogs® & News

Nearby

Air Quality

  Air Quality AQ Index Pollutant
Not available.

Snow Depth

Station Depth Elevation

Earthquake Activity

City Distance Mag. Time & Date
Minimum magnitude displayed is 2.5.

Coastal Water Temperatures

Place Temperature

Stations

Nearby Weather Stations

Station Location Temp. Windchill Dew Point Humidity Wind Precip. Elev Updated Type